EmailTwitter


Observations de surface / Québec / CYUL (71627)

Régions: Québec | Canada | États-Unis | Europe | France | UK | Ailleurs
Station
Affichage
Infos & localisation pour CYUL (71627) | Aide pour décoder les METARs

Observations prises le 2017-11-20 à 11H38 UTC à MONTREAL INTL A, QB (CYUL)

Etat du ciel: couvert.

Obstacle(s) à la visibilité: faible neige.

Température: -6.0 Celsius

Point de rosée: -12.0 Celsius

Humidité relative: 63%

Facteur vent: -13.

Facteur vent (rafales): -15.

Vents: Ouest à 22 km/h ou 12 noeuds.

Rafale du vent: 39 km/h ou 21 noeuds.

Pression au niveau moyen de la mer: 101.03 kilopascals.

Calage altimétrique: 100.98 kilopascals ou 29.82 pouces de mercure.

Visibilité horizontale: 5.00 milles terrestres ou 8.00 kilomètres.

Hauteur du plafond: 1158 mètres ( 3800 pieds ).

Observation METAR:

CYUL 201138Z 28012G21KT 5SM -SN SCT025 OVC038 M06/M12 A2982 RMK SC4SC4 -SN

INTMT SLP103=